Time;durP1;ratioP1;P1;durP2;ratioP2;P2;SDS_P1;SDS_P2;PMS_P1;PMS_P2;Temp;Humidity;BMP_temperature;BMP_pressure;BME280_temperature;BME280_humidity;BME280_pressure;Samples;Min_cycle;Max_cycle;Signal;HPM_P1;HPM_P2
2021/09/19 00:02:03;;;;;;;4.18;2.33;;;;;;;8.55;72.00;101476.47;5107621;28;20077;-73
2021/09/19 00:04:29;;;;;;;5.05;2.53;;;;;;;8.58;72.03;101479.13;5107446;28;20047;-73
2021/09/19 00:06:54;;;;;;;8.68;2.83;;;;;;;8.64;71.79;101479.22;5107281;28;20020;-73
2021/09/19 00:09:20;;;;;;;4.88;3.10;;;;;;;8.65;72.11;101477.50;5107170;28;20529;-72
2021/09/19 00:11:45;;;;;;;7.60;2.72;;;;;;;8.70;71.87;101477.59;5107086;28;20024;-73
2021/09/19 00:14:14;;;;;;;4.20;2.20;;;;;;;8.66;71.66;101472.38;5089012;28;20074;-74
2021/09/19 00:16:39;;;;;;;4.75;2.40;;;;;;;8.67;71.76;101471.50;5107300;28;20039;-73
2021/09/19 00:19:05;;;;;;;3.47;2.10;;;;;;;8.77;71.50;101475.13;5107239;28;20024;-73
2021/09/19 00:21:30;;;;;;;6.13;2.80;;;;;;;8.78;71.45;101473.41;5107208;28;20048;-75
2021/09/19 00:23:55;;;;;;;4.95;2.53;;;;;;;8.77;71.50;101474.28;5107270;28;20028;-73
2021/09/19 00:26:21;;;;;;;4.03;2.50;;;;;;;8.81;71.26;101473.47;5106721;28;20032;-74
2021/09/19 00:28:47;;;;;;;5.32;2.58;;;;;;;8.82;71.38;101480.38;5107002;28;20020;-72
2021/09/19 00:31:12;;;;;;;5.97;2.42;;;;;;;8.80;71.51;101471.72;5106694;28;20020;-72
2021/09/19 00:33:37;;;;;;;5.70;2.30;;;;;;;8.83;71.41;101479.56;5106478;28;20122;-72
2021/09/19 00:36:03;;;;;;;4.25;2.70;;;;;;;8.84;71.28;101473.50;5106549;28;20020;-72
2021/09/19 00:38:28;;;;;;;5.82;2.65;;;;;;;8.85;71.26;101476.97;5088410;28;20408;-74
2021/09/19 00:40:54;;;;;;;4.28;2.92;;;;;;;8.87;71.15;101483.91;5122277;28;20050;-73
2021/09/19 00:43:19;;;;;;;5.35;2.97;;;;;;;8.89;71.20;101481.34;5106160;28;20020;-74
2021/09/19 00:45:44;;;;;;;4.63;2.97;;;;;;;8.88;71.27;101483.06;5105782;28;20031;-73
2021/09/19 00:48:14;;;;;;;4.07;2.63;;;;;;;8.83;70.99;101479.56;5105540;28;20087;-73
2021/09/19 00:50:40;;;;;;;5.97;2.60;;;;;;;8.86;71.11;101478.72;5105719;28;20099;-73
2021/09/19 00:53:08;;;;;;;3.58;2.20;;;;;;;8.83;70.77;101470.91;5122083;28;20048;-74
2021/09/19 00:55:33;;;;;;;5.78;2.53;;;;;;;8.83;70.77;101471.78;5106245;28;20031;-74
2021/09/19 00:58:04;;;;;;;3.75;2.72;;;;;;;8.84;71.06;101470.91;5106468;28;20024;-73
2021/09/19 01:00:31;;;;;;;6.25;2.78;;;;;;;8.83;70.90;101476.97;5106426;28;20103;-73
2021/09/19 01:02:56;;;;;;;3.95;2.58;;;;;;;8.89;70.46;101484.81;5106302;28;20028;-74
2021/09/19 01:05:23;;;;;;;6.68;2.67;;;;;;;8.86;70.10;101476.13;5104994;28;20063;-74
2021/09/19 01:07:49;;;;;;;4.40;2.75;;;;;;;8.85;70.15;101483.00;5106062;28;20036;-74
2021/09/19 01:10:17;;;;;;;4.82;2.72;;;;;;;8.84;70.06;101475.22;5105748;28;20019;-74
2021/09/19 01:12:43;;;;;;;5.45;2.15;;;;;;;8.85;70.23;101472.66;5106307;28;20069;-74
2021/09/19 01:15:11;;;;;;;3.83;2.38;;;;;;;8.89;70.10;101476.16;5105797;28;20043;-74
2021/09/19 01:17:40;;;;;;;4.47;2.55;;;;;;;8.87;69.88;101475.28;5106162;28;20089;-74
2021/09/19 01:20:13;;;;;;;6.00;2.50;;;;;;;8.88;69.82;101477.88;5106135;28;20063;-74
2021/09/19 01:22:39;;;;;;;2.85;1.95;;;;;;;8.86;69.70;101476.13;5105786;28;20054;-73
2021/09/19 01:25:08;;;;;;;4.90;2.60;;;;;;;8.86;69.61;101476.13;5105649;28;20016;-74
2021/09/19 01:27:33;;;;;;;5.45;2.85;;;;;;;8.83;69.69;101470.91;5106594;28;20052;-72
2021/09/19 01:29:59;;;;;;;3.40;2.30;;;;;;;8.84;69.47;101480.41;5107284;28;20028;-73
2021/09/19 01:32:24;;;;;;;3.67;2.33;;;;;;;8.84;69.25;101476.09;5107504;28;20031;-75
2021/09/19 01:34:51;;;;;;;3.20;2.20;;;;;;;8.82;69.24;101472.59;5105648;28;20024;-74
2021/09/19 01:37:18;;;;;;;5.72;2.55;;;;;;;8.78;69.26;101479.47;5121485;28;20031;-74
2021/09/19 01:39:43;;;;;;;3.40;2.30;;;;;;;8.75;69.27;101470.78;5105701;28;20463;-74
2021/09/19 01:42:10;;;;;;;5.22;2.58;;;;;;;8.77;69.25;101469.94;5105409;28;20087;-75
2021/09/19 01:44:36;;;;;;;4.05;2.45;;;;;;;8.77;69.38;101471.69;5121142;28;20046;-74
2021/09/19 01:47:01;;;;;;;4.20;2.10;;;;;;;8.77;69.38;101474.28;5105710;28;20050;-74
2021/09/19 01:49:27;;;;;;;5.07;2.28;;;;;;;8.73;69.22;101464.69;5087288;28;20024;-74
2021/09/19 01:51:52;;;;;;;10.40;2.90;;;;;;;8.74;68.87;101474.22;5105366;28;20028;-74
2021/09/19 01:54:18;;;;;;;6.03;2.65;;;;;;;8.75;69.10;101479.44;5087069;28;20451;-73
2021/09/19 01:56:43;;;;;;;4.00;2.25;;;;;;;8.75;69.27;101470.78;5104858;28;20020;-73
2021/09/19 01:59:08;;;;;;;3.72;2.30;;;;;;;8.77;68.83;101471.69;5105002;28;20503;-74
2021/09/19 02:01:34;;;;;;;4.10;2.25;;;;;;;8.80;68.70;101479.50;5105046;28;20027;-74
2021/09/19 02:03:59;;;;;;;4.32;2.58;;;;;;;8.77;68.88;101474.28;5105218;28;20023;-74
2021/09/19 02:06:25;;;;;;;3.22;2.28;;;;;;;8.79;68.70;101472.56;5104961;28;20050;-74
2021/09/19 02:08:50;;;;;;;3.75;2.30;;;;;;;8.79;68.80;101463.09;5105189;28;20027;-74
2021/09/19 02:11:17;;;;;;;4.05;2.50;;;;;;;8.81;68.86;101470.88;5104625;28;20020;-74
2021/09/19 02:13:44;;;;;;;3.20;2.10;;;;;;;8.77;68.86;101467.34;5104968;28;20130;-75
2021/09/19 02:16:11;;;;;;;5.28;2.17;;;;;;;8.76;68.82;101467.34;5104736;28;20077;-75
2021/09/19 02:18:37;;;;;;;4.53;2.55;;;;;;;8.83;68.53;101471.78;5120581;28;20518;-75
2021/09/19 02:21:05;;;;;;;5.40;2.53;;;;;;;8.79;68.47;101465.69;5104778;28;20028;-76
2021/09/19 02:23:30;;;;;;;4.78;2.10;;;;;;;8.80;68.40;101458.78;5086851;28;20020;-75
2021/09/19 02:25:56;;;;;;;4.05;2.38;;;;;;;8.77;68.35;101464.75;5104386;28;20671;-75
2021/09/19 02:28:21;;;;;;;3.20;1.95;;;;;;;8.83;68.16;101460.53;5104554;28;20031;-76
2021/09/19 02:30:49;;;;;;;3.33;2.20;;;;;;;8.77;67.89;101450.97;5104605;28;20028;-75
2021/09/19 02:33:15;;;;;;;4.70;2.33;;;;;;;8.82;67.63;101458.81;5104591;28;20042;-75
2021/09/19 02:35:41;;;;;;;5.22;1.90;;;;;;;8.78;67.88;101451.00;5104423;28;20024;-74
2021/09/19 02:38:06;;;;;;;4.65;2.25;;;;;;;8.76;67.68;101444.91;5104464;28;20027;-74
2021/09/19 02:40:31;;;;;;;3.45;1.90;;;;;;;8.82;67.95;101457.06;5104387;28;20031;-74
2021/09/19 02:42:57;;;;;;;3.28;2.22;;;;;;;8.81;67.72;101455.34;5104320;28;20024;-73
2021/09/19 02:45:22;;;;;;;3.33;2.15;;;;;;;8.80;68.21;101453.59;5104214;28;20028;-74
2021/09/19 02:47:48;;;;;;;3.38;2.22;;;;;;;8.76;68.03;101441.44;5104662;28;20020;-73
2021/09/19 02:50:17;;;;;;;3.75;2.33;;;;;;;8.78;68.41;101445.81;5104467;28;20028;-73
2021/09/19 02:52:43;;;;;;;3.58;2.30;;;;;;;8.77;68.32;101453.56;5104286;28;20024;-73
2021/09/19 02:55:10;;;;;;;4.03;2.45;;;;;;;8.76;68.66;101455.28;5103739;28;20031;-72
2021/09/19 02:57:37;;;;;;;4.95;2.20;;;;;;;8.68;68.68;101439.63;5104189;28;20024;-73
2021/09/19 03:00:05;;;;;;;3.60;2.53;;;;;;;8.75;68.89;101455.25;5103986;28;20051;-73
2021/09/19 03:02:30;;;;;;;4.68;2.67;;;;;;;8.75;69.05;101455.25;5104051;28;20099;-72
2021/09/19 03:04:56;;;;;;;6.25;2.50;;;;;;;8.73;69.24;101450.03;5103877;28;20031;-72
2021/09/19 03:07:21;;;;;;;3.50;2.38;;;;;;;8.64;69.38;101437.81;5103932;28;20023;-72
2021/09/19 03:09:46;;;;;;;5.35;2.95;;;;;;;8.71;69.42;101454.31;5103961;28;20030;-72
2021/09/19 03:12:11;;;;;;;4.80;3.17;;;;;;;8.71;69.62;101448.25;5103483;28;20043;-73
2021/09/19 03:14:37;;;;;;;5.50;2.80;;;;;;;8.64;69.65;101448.16;5103965;28;20153;-73
2021/09/19 03:17:02;;;;;;;5.30;2.30;;;;;;;8.63;69.87;101441.25;5103835;28;20024;-73
2021/09/19 03:19:28;;;;;;;4.97;2.60;;;;;;;8.62;69.92;101447.28;5103832;28;20027;-73
2021/09/19 03:21:53;;;;;;;5.93;2.63;;;;;;;8.61;70.04;101445.53;5103559;28;20040;-73
2021/09/19 03:24:18;;;;;;;3.97;2.60;;;;;;;8.57;70.14;101441.16;5103668;28;20073;-73
2021/09/19 03:26:44;;;;;;;4.15;2.70;;;;;;;8.60;70.19;101451.56;5103153;28;20031;-73
2021/09/19 03:29:09;;;;;;;4.53;2.63;;;;;;;8.58;70.33;101448.06;5103232;28;20024;-73
2021/09/19 03:31:34;;;;;;;3.25;2.35;;;;;;;8.60;70.35;101456.72;5085248;28;20020;-73
2021/09/19 03:34:00;;;;;;;5.60;2.80;;;;;;;8.59;70.48;101455.00;5103526;28;20020;-73
2021/09/19 03:36:26;;;;;;;8.75;3.08;;;;;;;8.59;70.49;101449.81;5085296;28;20024;-73
2021/09/19 03:38:52;;;;;;;5.57;2.63;;;;;;;8.61;70.42;101447.25;5103405;28;20045;-73
2021/09/19 03:41:17;;;;;;;4.07;2.35;;;;;;;8.54;70.43;101441.97;5103339;28;20023;-73
2021/09/19 03:43:42;;;;;;;4.57;2.58;;;;;;;8.56;70.75;101444.59;5103597;28;20020;-73
2021/09/19 03:46:08;;;;;;;3.95;2.60;;;;;;;8.55;70.46;101446.31;5103495;28;20043;-73
2021/09/19 03:48:33;;;;;;;4.15;2.63;;;;;;;8.58;70.48;101445.47;5103505;28;20126;-73
2021/09/19 03:50:59;;;;;;;5.78;2.55;;;;;;;8.54;70.45;101446.25;5103372;28;20034;-74
2021/09/19 03:53:25;;;;;;;5.63;2.40;;;;;;;8.55;70.44;101448.00;5103312;28;20153;-73
2021/09/19 03:55:50;;;;;;;6.38;2.50;;;;;;;8.53;70.63;101447.09;5103036;28;20024;-74
2021/09/19 03:58:16;;;;;;;3.50;2.28;;;;;;;8.49;70.56;101448.75;5103327;28;20024;-74
2021/09/19 04:00:41;;;;;;;5.32;2.42;;;;;;;8.50;70.68;101449.63;5103241;28;20043;-73
2021/09/19 04:03:06;;;;;;;3.65;2.50;;;;;;;8.48;70.59;101452.16;5103332;28;20063;-73
2021/09/19 04:05:32;;;;;;;5.45;2.67;;;;;;;8.46;70.71;101451.28;5084725;28;20035;-73
2021/09/19 04:07:57;;;;;;;7.10;2.53;;;;;;;8.43;70.63;101438.31;5103330;28;20028;-72
2021/09/19 04:10:22;;;;;;;3.85;2.60;;;;;;;8.42;70.70;101449.47;5102700;28;20034;-73
2021/09/19 04:12:48;;;;;;;3.78;2.35;;;;;;;8.40;70.54;101443.44;5085491;28;20032;-73
2021/09/19 04:15:13;;;;;;;3.20;2.25;;;;;;;8.41;70.69;101448.63;5103279;28;20023;-73
2021/09/19 04:17:39;;;;;;;6.30;2.55;;;;;;;8.41;70.68;101446.03;5087966;28;20012;-75
2021/09/19 04:20:05;;;;;;;3.65;2.20;;;;;;;8.40;70.55;101452.03;5114073;28;20008;-73
2021/09/19 04:22:31;;;;;;;4.72;2.35;;;;;;;8.37;70.72;101459.75;5102963;28;20125;-72
2021/09/19 04:24:56;;;;;;;6.93;2.78;;;;;;;8.37;70.83;101454.56;5103046;28;20020;-73
2021/09/19 04:27:22;;;;;;;5.15;3.00;;;;;;;8.36;70.81;101458.03;5103525;28;20111;-72
2021/09/19 04:29:47;;;;;;;4.72;2.47;;;;;;;8.34;70.65;101457.09;5103446;28;20077;-73
2021/09/19 04:32:13;;;;;;;4.15;2.40;;;;;;;8.38;70.83;101458.94;5103164;28;20028;-72
2021/09/19 04:34:39;;;;;;;6.30;2.67;;;;;;;8.38;70.81;101456.34;5103153;28;20031;-72
2021/09/19 04:37:04;;;;;;;3.95;2.40;;;;;;;8.36;70.63;101451.97;5103130;28;20042;-72
2021/09/19 04:39:30;;;;;;;3.50;2.17;;;;;;;8.41;70.53;101461.56;5104958;28;20078;-71
2021/09/19 04:41:55;;;;;;;4.70;2.63;;;;;;;8.38;70.36;101461.50;5106664;28;20092;-72
2021/09/19 04:44:20;;;;;;;3.67;2.58;;;;;;;8.38;70.59;101461.50;5106840;28;20048;-71
2021/09/19 04:46:46;;;;;;;3.63;2.22;;;;;;;8.37;70.54;101461.50;5106774;28;20016;-72
2021/09/19 04:49:11;;;;;;;5.72;2.53;;;;;;;8.36;70.59;101455.44;5088219;28;20027;-72
2021/09/19 04:51:37;;;;;;;3.88;2.50;;;;;;;8.38;70.47;101466.69;5106434;28;20040;-72
2021/09/19 04:54:02;;;;;;;4.03;2.25;;;;;;;8.39;70.30;101464.94;5106675;28;20028;-71
2021/09/19 04:56:28;;;;;;;4.38;2.42;;;;;;;8.38;70.30;101464.09;5106643;28;20039;-73
2021/09/19 04:58:53;;;;;;;5.10;2.30;;;;;;;8.35;70.51;101461.47;5106641;28;20035;-72
2021/09/19 05:01:19;;;;;;;4.45;2.33;;;;;;;8.35;70.59;101468.34;5106496;28;20020;-72
2021/09/19 05:03:44;;;;;;;4.00;2.70;;;;;;;8.35;70.54;101465.75;5106281;28;20024;-73
2021/09/19 05:06:09;;;;;;;4.10;2.35;;;;;;;8.35;70.48;101458.88;5106218;28;20078;-72
2021/09/19 05:08:35;;;;;;;4.03;2.17;;;;;;;8.36;70.34;101462.31;5087826;28;20031;-72
2021/09/19 05:11:01;;;;;;;4.35;1.90;;;;;;;8.35;70.41;101466.63;5087517;28;20220;-71
2021/09/19 05:13:27;;;;;;;2.97;2.00;;;;;;;8.35;70.45;101465.75;5106408;28;20024;-72
2021/09/19 05:15:52;;;;;;;5.90;2.05;;;;;;;8.32;70.53;101456.22;5105950;28;20028;-72
2021/09/19 05:18:18;;;;;;;2.83;2.20;;;;;;;8.36;70.30;101463.19;5106012;28;20028;-72
2021/09/19 05:20:43;;;;;;;4.45;2.47;;;;;;;8.30;70.57;101452.75;5105992;28;20117;-73
2021/09/19 05:23:08;;;;;;;6.65;2.67;;;;;;;8.37;70.40;101459.75;5105914;28;20047;-72
2021/09/19 05:25:34;;;;;;;6.07;2.42;;;;;;;8.40;70.62;101469.31;5105667;28;20387;-72
2021/09/19 05:27:59;;;;;;;4.53;2.15;;;;;;;8.43;70.24;101472.78;5106004;28;20023;-71
2021/09/19 05:30:24;;;;;;;4.53;2.25;;;;;;;8.42;70.40;101473.66;5105485;28;20033;-71
2021/09/19 05:32:50;;;;;;;6.82;2.28;;;;;;;8.45;70.29;101471.97;5106066;28;20426;-72
2021/09/19 05:35:15;;;;;;;4.15;2.53;;;;;;;8.46;70.35;101469.41;5121356;28;20460;-73
2021/09/19 05:37:41;;;;;;;5.80;2.67;;;;;;;8.47;70.27;101475.44;5105751;28;20048;-75
2021/09/19 05:40:08;;;;;;;4.13;2.55;;;;;;;8.48;70.06;101466.84;5105413;28;20017;-73
2021/09/19 05:42:34;;;;;;;4.13;2.50;;;;;;;8.46;70.17;101465.94;5105901;28;20020;-71
2021/09/19 05:45:00;;;;;;;4.57;2.35;;;;;;;8.49;69.99;101468.56;5105425;28;20126;-72
2021/09/19 05:47:25;;;;;;;3.67;2.20;;;;;;;8.49;70.10;101473.75;5105458;28;20024;-72
2021/09/19 05:49:51;;;;;;;3.72;2.35;;;;;;;8.50;69.90;101462.56;5105174;28;20035;-73
2021/09/19 05:52:16;;;;;;;4.53;2.85;;;;;;;8.53;69.74;101473.84;5104985;28;20072;-74
2021/09/19 05:54:42;;;;;;;3.90;2.30;;;;;;;8.55;69.96;101471.31;5105377;28;20028;-74
2021/09/19 05:57:07;;;;;;;4.07;2.25;;;;;;;8.54;69.78;101469.53;5105053;28;20027;-73
2021/09/19 05:59:32;;;;;;;3.03;2.15;;;;;;;8.59;69.81;101480.00;5105207;28;20028;-73
2021/09/19 06:01:58;;;;;;;4.72;2.50;;;;;;;8.61;69.57;101467.97;5105164;28;20028;-74
2021/09/19 06:04:23;;;;;;;8.68;2.50;;;;;;;8.57;69.54;101464.44;5105043;28;20024;-73
2021/09/19 06:06:49;;;;;;;4.20;2.30;;;;;;;8.65;69.54;101480.09;5104949;28;20031;-75
2021/09/19 06:09:15;;;;;;;6.90;2.50;;;;;;;8.58;69.40;101466.19;5086817;28;20024;-74
2021/09/19 06:11:42;;;;;;;3.95;2.38;;;;;;;8.75;69.46;101481.13;5104832;28;20021;-74
2021/09/19 06:14:07;;;;;;;4.97;2.70;;;;;;;8.74;69.30;101475.06;5104868;28;20053;-74
2021/09/19 06:16:33;;;;;;;3.67;2.40;;;;;;;8.76;68.98;101472.50;5104634;28;20110;-75
2021/09/19 06:18:58;;;;;;;2.88;2.00;;;;;;;8.83;69.03;101489.91;5104747;28;20043;-75
2021/09/19 06:21:23;;;;;;;5.55;2.33;;;;;;;8.90;69.05;101493.44;5104542;28;20531;-75
2021/09/19 06:23:49;;;;;;;5.72;2.55;;;;;;;8.92;68.98;101489.16;5104765;28;20023;-72
2021/09/19 06:26:14;;;;;;;3.47;2.15;;;;;;;8.93;68.77;101491.78;5104348;28;20391;-73
2021/09/19 06:28:39;;;;;;;4.75;2.47;;;;;;;8.96;68.82;101493.53;5104664;28;20016;-73
2021/09/19 06:31:05;;;;;;;3.10;2.13;;;;;;;9.03;68.83;101495.41;5104563;28;20060;-74
2021/09/19 06:33:30;;;;;;;4.07;2.50;;;;;;;9.04;68.67;101491.94;5104674;28;20486;-74
2021/09/19 06:35:56;;;;;;;4.20;2.60;;;;;;;9.06;68.44;101489.38;5104526;28;20050;-74
2021/09/19 06:38:21;;;;;;;2.95;2.30;;;;;;;9.07;68.63;101495.44;5104421;28;20024;-74
2021/09/19 06:40:47;;;;;;;6.90;2.80;;;;;;;9.09;68.72;101497.19;5104375;28;20022;-74
2021/09/19 06:43:12;;;;;;;7.93;2.25;;;;;;;9.11;68.66;101484.25;5086181;28;20027;-74
2021/09/19 06:45:37;;;;;;;4.03;2.53;;;;;;;9.18;68.78;101481.78;5104203;28;20027;-75
2021/09/19 06:48:03;;;;;;;3.67;2.30;;;;;;;9.32;68.38;101490.63;5086173;28;20016;-75
2021/09/19 06:50:28;;;;;;;4.28;2.15;;;;;;;9.40;68.26;101491.59;5104190;28;20062;-75
2021/09/19 06:52:54;;;;;;;7.72;2.58;;;;;;;9.50;67.68;101497.78;5104243;28;20024;-71
2021/09/19 06:55:19;;;;;;;2.92;2.25;;;;;;;9.57;67.71;101494.41;5104005;28;20075;-72
2021/09/19 06:57:46;;;;;;;4.97;3.05;;;;;;;9.61;67.49;101484.97;5104086;28;20027;-72
2021/09/19 07:00:12;;;;;;;3.67;2.20;;;;;;;9.67;67.58;101490.22;5103968;28;20020;-73
2021/09/19 07:02:38;;;;;;;4.47;2.35;;;;;;;9.62;67.13;101477.22;5103050;28;20016;-74
2021/09/19 07:05:04;;;;;;;2.75;2.15;;;;;;;9.79;66.73;101490.38;5103903;28;20046;-74
2021/09/19 07:07:29;;;;;;;3.00;2.28;;;;;;;9.82;66.22;101483.50;5103672;28;20058;-73
2021/09/19 07:09:55;;;;;;;4.13;2.70;;;;;;;9.78;66.52;101491.25;5085384;28;20020;-74
2021/09/19 07:12:20;;;;;;;3.42;2.25;;;;;;;9.86;66.61;101491.34;5085281;28;20030;-74
2021/09/19 07:14:45;;;;;;;3.95;1.92;;;;;;;9.98;65.93;101490.63;5103926;28;20042;-74
2021/09/19 07:17:12;;;;;;;3.63;2.03;;;;;;;9.90;66.09;101487.06;5103744;28;20028;-73
2021/09/19 07:19:38;;;;;;;5.70;2.67;;;;;;;10.06;65.69;101495.91;5103514;28;20031;-73
2021/09/19 07:22:03;;;;;;;2.67;2.15;;;;;;;9.95;66.05;101492.28;5103185;28;20028;-74
2021/09/19 07:24:29;;;;;;;3.30;2.05;;;;;;;9.96;65.90;101492.31;5103829;28;20029;-73
2021/09/19 07:26:54;;;;;;;5.13;2.25;;;;;;;10.00;65.51;101490.63;5103229;28;20032;-73
2021/09/19 07:29:19;;;;;;;2.38;1.80;;;;;;;9.96;66.01;101483.66;5085027;28;20065;-73
2021/09/19 07:31:50;;;;;;;3.28;2.30;;;;;;;10.08;65.87;101490.72;5103480;28;20024;-74
2021/09/19 07:34:15;;;;;;;4.20;2.63;;;;;;;10.11;65.94;101490.75;5103482;28;20483;-73
2021/09/19 07:36:41;;;;;;;3.15;2.30;;;;;;;10.19;65.55;101496.91;5103376;28;20370;-72
2021/09/19 07:39:07;;;;;;;3.60;2.47;;;;;;;10.22;65.11;101488.28;5103628;28;20091;-73
2021/09/19 07:41:33;;;;;;;3.92;2.20;;;;;;;10.30;65.12;101497.00;5103185;28;20451;-73
2021/09/19 07:43:59;;;;;;;5.53;2.00;;;;;;;10.41;65.07;101499.72;5103324;28;20028;-72
2021/09/19 07:46:25;;;;;;;3.20;2.47;;;;;;;10.40;64.85;101487.56;5103220;28;20081;-72
2021/09/19 07:48:51;;;;;;;3.15;2.20;;;;;;;10.57;64.79;101508.56;5103516;28;20028;-72
2021/09/19 07:51:17;;;;;;;3.40;1.95;;;;;;;10.66;64.31;101499.97;5103297;28;20024;-73
2021/09/19 07:53:45;;;;;;;4.35;2.53;;;;;;;10.71;64.56;101500.00;5103308;28;20076;-72
2021/09/19 07:56:10;;;;;;;4.05;2.10;;;;;;;10.80;64.38;101502.69;5103016;28;20020;-73
2021/09/19 07:58:36;;;;;;;3.30;2.30;;;;;;;10.82;63.66;101497.50;5085255;28;20032;-72
2021/09/19 08:01:01;;;;;;;3.47;2.45;;;;;;;10.85;63.68;101503.59;5084905;28;20039;-73
2021/09/19 08:03:26;;;;;;;3.25;2.28;;;;;;;10.93;63.79;101502.81;5102906;28;20028;-72
2021/09/19 08:05:52;;;;;;;3.53;2.60;;;;;;;11.00;63.52;101494.19;5103136;28;20420;-75
2021/09/19 08:08:17;;;;;;;5.07;2.58;;;;;;;11.14;63.34;101510.75;5103388;28;20299;-70
2021/09/19 08:10:43;;;;;;;4.13;1.85;;;;;;;11.14;63.15;101507.25;5102915;28;20028;-74
2021/09/19 08:13:08;;;;;;;2.97;2.28;;;;;;;11.28;62.01;101507.34;5103013;28;20024;-69
2021/09/19 08:15:33;;;;;;;3.28;2.20;;;;;;;11.26;62.43;101517.75;5107114;28;20020;-63
2021/09/19 08:17:59;;;;;;;3.00;2.22;;;;;;;11.32;62.63;101519.53;5106810;28;20073;-63
2021/09/19 08:20:24;;;;;;;5.55;2.20;;;;;;;11.41;62.46;101508.31;5106794;28;20023;-75
2021/09/19 08:22:50;;;;;;;2.67;2.10;;;;;;;11.59;62.35;101498.88;5107140;28;20040;-71
2021/09/19 08:25:18;;;;;;;3.03;2.22;;;;;;;11.80;61.68;101513.72;5106496;28;20047;-67
2021/09/19 08:27:44;;;;;;;3.88;2.45;;;;;;;11.89;61.27;101503.34;5107203;28;20032;-67
2021/09/19 08:30:12;;;;;;;2.63;2.17;;;;;;;11.95;60.98;101493.81;5107176;28;20081;-66
2021/09/19 08:32:38;;;;;;;3.30;2.30;;;;;;;12.01;60.85;101497.28;5106554;28;20049;-66
2021/09/19 08:35:05;;;;;;;3.58;2.35;;;;;;;12.09;60.70;101497.34;5106812;28;20020;-67
2021/09/19 08:37:30;;;;;;;3.67;2.38;;;;;;;12.13;60.73;101500.81;5106420;28;20059;-67
2021/09/19 08:39:55;;;;;;;3.30;2.20;;;;;;;12.16;60.55;101502.59;5106470;28;20024;-67
2021/09/19 08:42:21;;;;;;;3.70;2.33;;;;;;;12.17;60.25;101502.59;5106291;28;20024;-68
2021/09/19 08:44:46;;;;;;;3.67;2.42;;;;;;;12.14;59.79;101497.38;5088195;28;20043;-70
2021/09/19 08:47:12;;;;;;;3.03;2.20;;;;;;;12.13;60.11;101496.50;5106507;28;20016;-73
2021/09/19 08:49:38;;;;;;;4.35;2.25;;;;;;;12.27;60.31;101509.56;5122224;28;20082;-68
2021/09/19 08:52:04;;;;;;;3.05;2.03;;;;;;;12.42;59.29;101501.75;5106295;28;20341;-67
2021/09/19 08:54:29;;;;;;;3.50;2.20;;;;;;;12.48;58.94;101512.19;5106223;28;20083;-67
2021/09/19 08:56:55;;;;;;;2.58;1.92;;;;;;;12.45;58.88;101501.75;5087954;28;20526;-68
2021/09/19 08:59:20;;;;;;;2.33;1.63;;;;;;;12.34;58.39;101489.59;5088025;28;20024;-66
2021/09/19 09:01:59;;;;;;;3.53;2.13;;;;;;;12.54;57.94;101509.59;5106120;28;20046;-67
2021/09/19 09:04:25;;;;;;;2.80;2.00;;;;;;;12.73;58.56;101501.81;5106086;28;20020;-67
2021/09/19 09:06:52;;;;;;;3.58;2.00;;;;;;;12.91;57.34;101508.72;5105874;28;20429;-65
2021/09/19 09:09:17;;;;;;;3.95;1.80;;;;;;;12.85;55.94;101508.72;5105897;28;20023;-66
2021/09/19 09:12:18;;;;;;;3.90;1.80;;;;;;;12.74;55.65;101513.94;5105637;28;20047;-69
2021/09/19 09:14:51;;;;;;;3.88;1.70;;;;;;;12.76;55.05;101502.66;5023137;28;20041;-63
2021/09/19 09:17:18;;;;;;;3.28;1.63;;;;;;;12.80;54.66;101500.03;5023144;28;20033;-65
2021/09/19 09:19:46;;;;;;;3.13;1.60;;;;;;;13.01;53.31;101502.66;5023118;28;20055;-64
2021/09/19 09:22:12;;;;;;;2.63;1.90;;;;;;;13.08;53.82;101510.47;5022813;28;20494;-64
2021/09/19 09:24:40;;;;;;;5.82;1.98;;;;;;;13.30;54.83;101497.38;5022495;28;20037;-63
2021/09/19 09:27:23;;;;;;;2.90;1.90;;;;;;;13.61;53.54;101499.94;5021876;28;20026;-64
2021/09/19 09:30:06;;;;;;;2.63;2.00;;;;;;;13.96;51.94;101498.91;5022841;28;20088;-64
2021/09/19 09:32:31;;;;;;;2.30;1.83;;;;;;;14.21;51.99;101500.53;5022666;28;20037;-64
2021/09/19 09:35:10;;;;;;;1.92;1.45;;;;;;;14.33;51.66;101495.22;5022625;28;20037;-63
2021/09/19 09:37:40;;;;;;;3.22;2.13;;;;;;;14.41;52.48;101496.94;5022734;28;20382;-71
2021/09/19 09:40:31;;;;;;;5.25;2.05;;;;;;;14.72;51.18;101494.06;5022617;28;20097;-73
2021/09/19 09:43:07;;;;;;;2.83;2.10;;;;;;;14.73;51.79;101493.19;5019825;28;20066;-74
2021/09/19 09:45:35;;;;;;;3.97;1.80;;;;;;;15.07;51.31;101490.31;5005829;28;20025;-72
2021/09/19 09:48:02;;;;;;;3.83;1.73;;;;;;;15.46;50.99;101489.03;5039372;28;20081;-73
2021/09/19 09:50:29;;;;;;;9.57;2.08;;;;;;;15.37;49.80;101474.28;5105203;28;20035;-64
2021/09/19 09:53:07;;;;;;;4.18;1.92;;;;;;;15.52;49.92;101481.09;5105225;28;20026;-69
2021/09/19 09:55:33;;;;;;;2.80;1.85;;;;;;;15.56;48.79;101492.41;5104698;28;20054;-64
2021/09/19 09:58:08;;;;;;;2.50;1.70;;;;;;;15.52;48.06;101490.69;5105019;28;20024;-65
2021/09/19 10:00:35;;;;;;;2.47;1.77;;;;;;;15.23;48.15;101496.25;5104781;28;20031;-65
2021/09/19 10:03:00;;;;;;;1.98;1.58;;;;;;;15.02;48.94;101499.94;5104803;28;20035;-65
2021/09/19 10:05:27;;;;;;;2.90;1.70;;;;;;;14.81;49.05;101491.41;5104825;28;20123;-64
2021/09/19 10:07:52;;;;;;;3.80;2.05;;;;;;;14.72;49.43;101487.09;5104810;28;20547;-65
2021/09/19 10:10:20;;;;;;;2.30;1.63;;;;;;;14.89;49.26;101485.25;5104580;28;20035;-64
2021/09/19 10:12:47;;;;;;;2.70;1.80;;;;;;;15.13;48.57;101486.75;5104490;28;20051;-65
2021/09/19 10:15:14;;;;;;;2.70;1.67;;;;;;;15.23;48.36;101474.44;5104707;28;20035;-63
2021/09/19 10:17:39;;;;;;;3.20;1.92;;;;;;;15.30;48.22;101485.72;5104420;28;20024;-63
2021/09/19 10:20:12;;;;;;;2.78;1.90;;;;;;;15.49;48.48;101478.53;5086167;28;20024;-68
2021/09/19 10:23:16;;;;;;;5.55;2.08;;;;;;;15.26;48.17;101471.78;5104292;28;20118;-68
2021/09/19 10:25:42;;;;;;;3.47;1.88;;;;;;;15.31;48.57;101472.63;5104219;28;20040;-68
2021/09/19 10:28:15;;;;;;;2.80;2.00;;;;;;;15.49;47.75;101470.69;5104446;28;20078;-69
2021/09/19 10:31:07;;;;;;;4.75;1.77;;;;;;;15.51;46.60;101476.75;5104184;28;20073;-67
2021/09/19 10:33:36;;;;;;;3.20;1.70;;;;;;;15.43;46.49;101481.22;5100273;28;20036;-68
2021/09/19 10:36:08;;;;;;;2.95;1.50;;;;;;;15.24;46.07;101474.44;5104399;28;20024;-68
2021/09/19 10:38:35;;;;;;;3.70;1.75;;;;;;;14.94;46.69;101479.09;5104029;28;20024;-68
2021/09/19 10:41:17;;;;;;;2.97;1.80;;;;;;;14.94;47.44;101480.84;5085644;28;20158;-68
2021/09/19 10:43:52;;;;;;;2.25;1.63;;;;;;;14.81;46.71;101485.34;5104199;28;20020;-68
2021/09/19 10:46:50;;;;;;;2.03;1.42;;;;;;;14.43;47.43;101474.25;5085721;28;20063;-67
2021/09/19 10:49:18;;;;;;;3.20;1.85;;;;;;;14.37;48.13;101476.06;5058542;28;20036;-68
2021/09/19 10:52:01;;;;;;;3.75;1.70;;;;;;;14.43;47.89;101474.25;5104145;28;20045;-68
2021/09/19 10:54:42;;;;;;;2.80;1.80;;;;;;;14.29;48.38;101479.59;5104097;28;20099;-67
2021/09/19 10:57:27;;;;;;;2.50;1.80;;;;;;;14.29;48.78;101462.19;5103848;28;20471;-68
2021/09/19 11:00:07;;;;;;;2.85;1.65;;;;;;;14.33;48.43;101469.09;5104021;28;20020;-69
2021/09/19 11:02:34;;;;;;;3.33;2.10;;;;;;;14.45;48.26;101464.66;5103807;28;20042;-67
2021/09/19 11:05:26;;;;;;;2.88;1.63;;;;;;;14.32;47.23;101480.44;5103915;28;20028;-68
2021/09/19 11:08:15;;;;;;;2.85;1.90;;;;;;;14.11;47.81;101470.97;5103734;28;20016;-68
2021/09/19 11:10:46;;;;;;;2.33;1.42;;;;;;;14.22;47.29;101470.91;5103333;28;20039;-67
2021/09/19 11:13:24;;;;;;;3.00;1.38;;;;;;;13.94;46.62;101468.47;5104243;28;20020;-68
2021/09/19 11:16:02;;;;;;;2.53;1.40;;;;;;;13.74;47.25;101472.03;5103650;28;20028;-66
2021/09/19 11:18:34;;;;;;;2.45;1.55;;;;;;;13.69;47.23;101468.59;5103528;28;20044;-67
2021/09/19 11:21:12;;;;;;;2.10;1.40;;;;;;;13.72;47.92;101472.06;5103761;28;20023;-69
2021/09/19 11:23:46;;;;;;;2.72;1.70;;;;;;;13.69;48.01;101473.81;5103941;28;20046;-68
2021/09/19 11:26:16;;;;;;;2.30;1.70;;;;;;;13.62;48.21;101466.03;5103462;28;20024;-67
2021/09/19 11:28:42;;;;;;;2.95;2.00;;;;;;;13.65;48.53;101461.66;5103431;28;20082;-67
2021/09/19 11:31:09;;;;;;;2.30;1.50;;;;;;;13.59;48.66;101457.34;5103542;28;20468;-68
2021/09/19 11:33:35;;;;;;;4.68;1.63;;;;;;;13.64;48.86;101466.03;5103766;28;20031;-68